sensor_id;sensor_type;location;lat;lon;timestamp;temperature;humidity
13251;DHT22;6692;50.710;7.180;2023-04-09T00:00:41;8.90;99.90
13251;DHT22;6692;50.710;7.180;2023-04-09T00:02:42;9.00;99.90
13251;DHT22;6692;50.710;7.180;2023-04-09T00:04:43;9.00;99.90
13251;DHT22;6692;50.710;7.180;2023-04-09T00:06:44;9.00;99.90
13251;DHT22;6692;50.710;7.180;2023-04-09T00:08:45;9.00;99.90
13251;DHT22;6692;50.710;7.180;2023-04-09T00:10:45;9.10;99.90
13251;DHT22;6692;50.710;7.180;2023-04-09T00:12:46;9.10;99.90
13251;DHT22;6692;50.710;7.180;2023-04-09T00:14:47;9.10;99.90
13251;DHT22;6692;50.710;7.180;2023-04-09T00:16:47;9.10;99.90
13251;DHT22;6692;50.710;7.180;2023-04-09T00:18:49;9.20;99.90
13251;DHT22;6692;50.710;7.180;2023-04-09T00:20:49;9.20;99.90
13251;DHT22;6692;50.710;7.180;2023-04-09T00:22:51;9.20;99.90
13251;DHT22;6692;50.710;7.180;2023-04-09T00:24:51;9.20;99.90
13251;DHT22;6692;50.710;7.180;2023-04-09T00:26:52;9.20;99.90
13251;DHT22;6692;50.710;7.180;2023-04-09T00:28:53;9.30;99.90
13251;DHT22;6692;50.710;7.180;2023-04-09T00:30:54;9.20;99.90
13251;DHT22;6692;50.710;7.180;2023-04-09T00:32:55;9.30;99.90
13251;DHT22;6692;50.710;7.180;2023-04-09T00:34:57;9.30;99.90
13251;DHT22;6692;50.710;7.180;2023-04-09T00:36:58;9.30;99.90
13251;DHT22;6692;50.710;7.180;2023-04-09T00:38:59;9.30;99.90
13251;DHT22;6692;50.710;7.180;2023-04-09T00:40:59;9.30;99.90
13251;DHT22;6692;50.710;7.180;2023-04-09T00:43:00;9.40;99.90
13251;DHT22;6692;50.710;7.180;2023-04-09T00:45:01;9.40;99.90
13251;DHT22;6692;50.710;7.180;2023-04-09T00:47:02;9.30;99.90
13251;DHT22;6692;50.710;7.180;2023-04-09T00:49:04;9.30;99.90
13251;DHT22;6692;50.710;7.180;2023-04-09T00:51:05;9.40;99.90
13251;DHT22;6692;50.710;7.180;2023-04-09T00:53:05;9.30;99.90
13251;DHT22;6692;50.710;7.180;2023-04-09T00:55:07;9.40;99.90
13251;DHT22;6692;50.710;7.180;2023-04-09T00:57:08;9.30;99.90
13251;DHT22;6692;50.710;7.180;2023-04-09T00:59:09;9.40;99.90
13251;DHT22;6692;50.710;7.180;2023-04-09T01:01:09;9.40;99.90
13251;DHT22;6692;50.710;7.180;2023-04-09T01:03:10;9.40;99.90
13251;DHT22;6692;50.710;7.180;2023-04-09T01:05:11;9.40;99.90
13251;DHT22;6692;50.710;7.180;2023-04-09T01:07:16;9.40;99.90
13251;DHT22;6692;50.710;7.180;2023-04-09T01:09:19;9.40;99.90
13251;DHT22;6692;50.710;7.180;2023-04-09T01:11:29;9.40;99.90
13251;DHT22;6692;50.710;7.180;2023-04-09T01:13:27;9.40;99.90
13251;DHT22;6692;50.710;7.180;2023-04-09T01:15:28;9.40;99.90
13251;DHT22;6692;50.710;7.180;2023-04-09T01:17:30;9.40;99.90
13251;DHT22;6692;50.710;7.180;2023-04-09T01:19:43;9.40;99.90
13251;DHT22;6692;50.710;7.180;2023-04-09T01:21:42;9.40;99.90
13251;DHT22;6692;50.710;7.180;2023-04-09T01:23:58;9.40;99.90
13251;DHT22;6692;50.710;7.180;2023-04-09T01:26:16;9.30;99.90
13251;DHT22;6692;50.710;7.180;2023-04-09T01:28:20;9.30;99.90
13251;DHT22;6692;50.710;7.180;2023-04-09T01:30:20;9.40;99.90
13251;DHT22;6692;50.710;7.180;2023-04-09T01:32:21;9.30;99.90
13251;DHT22;6692;50.710;7.180;2023-04-09T01:34:21;9.30;99.90
13251;DHT22;6692;50.710;7.180;2023-04-09T01:36:23;9.40;99.90
13251;DHT22;6692;50.710;7.180;2023-04-09T01:38:24;9.40;99.90
13251;DHT22;6692;50.710;7.180;2023-04-09T01:40:25;9.40;99.90
13251;DHT22;6692;50.710;7.180;2023-04-09T01:42:26;9.40;99.90
13251;DHT22;6692;50.710;7.180;2023-04-09T01:44:27;9.40;99.90
13251;DHT22;6692;50.710;7.180;2023-04-09T01:46:28;9.40;99.90
13251;DHT22;6692;50.710;7.180;2023-04-09T01:48:28;9.40;99.90
13251;DHT22;6692;50.710;7.180;2023-04-09T01:50:29;9.40;99.90
13251;DHT22;6692;50.710;7.180;2023-04-09T01:52:29;9.40;99.90
13251;DHT22;6692;50.710;7.180;2023-04-09T01:54:31;9.30;99.90
13251;DHT22;6692;50.710;7.180;2023-04-09T01:56:40;9.30;99.90
13251;DHT22;6692;50.710;7.180;2023-04-09T01:58:40;9.30;99.90
13251;DHT22;6692;50.710;7.180;2023-04-09T02:00:44;9.30;99.90
13251;DHT22;6692;50.710;7.180;2023-04-09T02:02:48;9.20;99.90
13251;DHT22;6692;50.710;7.180;2023-04-09T02:04:46;9.10;99.90
13251;DHT22;6692;50.710;7.180;2023-04-09T02:06:51;9.20;99.90
13251;DHT22;6692;50.710;7.180;2023-04-09T02:08:48;9.10;99.90
13251;DHT22;6692;50.710;7.180;2023-04-09T02:10:50;9.10;99.90
13251;DHT22;6692;50.710;7.180;2023-04-09T02:12:51;9.10;99.90
13251;DHT22;6692;50.710;7.180;2023-04-09T02:14:52;9.00;99.90
13251;DHT22;6692;50.710;7.180;2023-04-09T02:16:53;8.90;99.90
13251;DHT22;6692;50.710;7.180;2023-04-09T02:18:55;8.90;99.90
13251;DHT22;6692;50.710;7.180;2023-04-09T02:20:57;8.90;99.90
13251;DHT22;6692;50.710;7.180;2023-04-09T02:22:58;8.80;99.90
13251;DHT22;6692;50.710;7.180;2023-04-09T02:24:58;8.80;99.90
13251;DHT22;6692;50.710;7.180;2023-04-09T02:27:00;8.80;99.90
13251;DHT22;6692;50.710;7.180;2023-04-09T02:29:01;8.80;99.90
13251;DHT22;6692;50.710;7.180;2023-04-09T02:31:02;8.70;99.90
13251;DHT22;6692;50.710;7.180;2023-04-09T02:33:03;8.70;99.90
13251;DHT22;6692;50.710;7.180;2023-04-09T02:35:05;8.70;99.90
13251;DHT22;6692;50.710;7.180;2023-04-09T02:37:06;8.70;99.90
13251;DHT22;6692;50.710;7.180;2023-04-09T02:39:07;8.70;99.90
13251;DHT22;6692;50.710;7.180;2023-04-09T02:41:09;8.70;99.90
13251;DHT22;6692;50.710;7.180;2023-04-09T02:43:10;8.60;99.90
13251;DHT22;6692;50.710;7.180;2023-04-09T02:45:10;8.70;99.90
13251;DHT22;6692;50.710;7.180;2023-04-09T02:47:11;8.60;99.90
13251;DHT22;6692;50.710;7.180;2023-04-09T02:49:11;8.70;99.90
13251;DHT22;6692;50.710;7.180;2023-04-09T02:51:13;8.60;99.90
13251;DHT22;6692;50.710;7.180;2023-04-09T02:53:13;8.60;99.90
13251;DHT22;6692;50.710;7.180;2023-04-09T02:55:15;8.60;99.90
13251;DHT22;6692;50.710;7.180;2023-04-09T02:57:16;8.60;99.90
13251;DHT22;6692;50.710;7.180;2023-04-09T02:59:17;8.50;99.90
13251;DHT22;6692;50.710;7.180;2023-04-09T03:01:18;8.50;99.90
13251;DHT22;6692;50.710;7.180;2023-04-09T03:03:19;8.40;99.90
13251;DHT22;6692;50.710;7.180;2023-04-09T03:05:20;8.40;99.90
13251;DHT22;6692;50.710;7.180;2023-04-09T03:07:21;8.40;99.90
13251;DHT22;6692;50.710;7.180;2023-04-09T03:09:21;8.40;99.90
13251;DHT22;6692;50.710;7.180;2023-04-09T03:11:22;8.30;99.90
13251;DHT22;6692;50.710;7.180;2023-04-09T03:13:22;8.30;99.90
13251;DHT22;6692;50.710;7.180;2023-04-09T03:15:23;8.20;99.90
13251;DHT22;6692;50.710;7.180;2023-04-09T03:17:24;8.20;99.90
13251;DHT22;6692;50.710;7.180;2023-04-09T03:19:24;8.20;99.90
13251;DHT22;6692;50.710;7.180;2023-04-09T03:21:26;8.30;99.90
13251;DHT22;6692;50.710;7.180;2023-04-09T03:23:26;8.30;99.90
13251;DHT22;6692;50.710;7.180;2023-04-09T03:25:28;8.20;99.90
13251;DHT22;6692;50.710;7.180;2023-04-09T03:27:28;8.20;99.90
13251;DHT22;6692;50.710;7.180;2023-04-09T03:29:30;8.20;99.90
13251;DHT22;6692;50.710;7.180;2023-04-09T03:31:31;8.20;99.90
13251;DHT22;6692;50.710;7.180;2023-04-09T03:33:32;8.20;99.90
13251;DHT22;6692;50.710;7.180;2023-04-09T03:35:32;8.10;99.90
13251;DHT22;6692;50.710;7.180;2023-04-09T03:37:33;8.10;99.90
13251;DHT22;6692;50.710;7.180;2023-04-09T03:39:34;8.10;99.90
13251;DHT22;6692;50.710;7.180;2023-04-09T03:41:35;8.10;99.90
13251;DHT22;6692;50.710;7.180;2023-04-09T03:43:36;8.10;99.90
13251;DHT22;6692;50.710;7.180;2023-04-09T03:45:38;8.00;99.90
13251;DHT22;6692;50.710;7.180;2023-04-09T03:47:39;8.00;99.90
13251;DHT22;6692;50.710;7.180;2023-04-09T03:49:40;8.00;99.90
13251;DHT22;6692;50.710;7.180;2023-04-09T03:51:41;8.00;99.90
13251;DHT22;6692;50.710;7.180;2023-04-09T03:53:42;8.00;99.90
13251;DHT22;6692;50.710;7.180;2023-04-09T03:55:42;8.00;99.90
13251;DHT22;6692;50.710;7.180;2023-04-09T03:57:43;8.00;99.90
13251;DHT22;6692;50.710;7.180;2023-04-09T03:59:44;8.00;99.90
13251;DHT22;6692;50.710;7.180;2023-04-09T04:01:44;8.00;99.90
13251;DHT22;6692;50.710;7.180;2023-04-09T04:03:45;8.00;99.90
13251;DHT22;6692;50.710;7.180;2023-04-09T04:05:46;8.00;99.90
13251;DHT22;6692;50.710;7.180;2023-04-09T04:07:46;8.10;99.90
13251;DHT22;6692;50.710;7.180;2023-04-09T04:09:47;8.10;99.90
13251;DHT22;6692;50.710;7.180;2023-04-09T04:11:47;8.20;99.90
13251;DHT22;6692;50.710;7.180;2023-04-09T04:13:48;8.20;99.90
13251;DHT22;6692;50.710;7.180;2023-04-09T04:15:49;8.20;99.90
13251;DHT22;6692;50.710;7.180;2023-04-09T04:17:49;8.20;99.90
13251;DHT22;6692;50.710;7.180;2023-04-09T04:19:50;8.30;99.90
13251;DHT22;6692;50.710;7.180;2023-04-09T04:21:51;8.30;99.90
13251;DHT22;6692;50.710;7.180;2023-04-09T04:23:51;8.30;99.90
13251;DHT22;6692;50.710;7.180;2023-04-09T04:25:52;8.30;99.90
13251;DHT22;6692;50.710;7.180;2023-04-09T04:27:53;8.30;99.90
13251;DHT22;6692;50.710;7.180;2023-04-09T04:29:53;8.30;99.90
13251;DHT22;6692;50.710;7.180;2023-04-09T04:31:54;8.30;99.90
13251;DHT22;6692;50.710;7.180;2023-04-09T04:33:54;8.30;99.90
13251;DHT22;6692;50.710;7.180;2023-04-09T04:36:02;8.20;99.90
13251;DHT22;6692;50.710;7.180;2023-04-09T04:37:56;8.30;99.90
13251;DHT22;6692;50.710;7.180;2023-04-09T04:39:56;8.30;99.90
13251;DHT22;6692;50.710;7.180;2023-04-09T04:41:57;8.20;99.90
13251;DHT22;6692;50.710;7.180;2023-04-09T04:43:58;8.20;99.90
13251;DHT22;6692;50.710;7.180;2023-04-09T04:45:58;8.20;99.90
13251;DHT22;6692;50.710;7.180;2023-04-09T04:47:59;8.30;99.90
13251;DHT22;6692;50.710;7.180;2023-04-09T04:50:00;8.20;99.90
13251;DHT22;6692;50.710;7.180;2023-04-09T04:52:00;8.20;99.90
13251;DHT22;6692;50.710;7.180;2023-04-09T04:54:01;8.10;99.90
13251;DHT22;6692;50.710;7.180;2023-04-09T04:56:02;8.10;99.90
13251;DHT22;6692;50.710;7.180;2023-04-09T04:58:02;8.10;99.90
13251;DHT22;6692;50.710;7.180;2023-04-09T05:00:03;8.10;99.90
13251;DHT22;6692;50.710;7.180;2023-04-09T05:02:05;8.20;99.90
13251;DHT22;6692;50.710;7.180;2023-04-09T05:04:06;8.10;99.90
13251;DHT22;6692;50.710;7.180;2023-04-09T05:06:07;8.10;99.90
13251;DHT22;6692;50.710;7.180;2023-04-09T05:08:08;8.10;99.90
13251;DHT22;6692;50.710;7.180;2023-04-09T05:10:09;8.20;99.90
13251;DHT22;6692;50.710;7.180;2023-04-09T05:12:10;8.20;99.90
13251;DHT22;6692;50.710;7.180;2023-04-09T05:14:10;8.20;99.90
13251;DHT22;6692;50.710;7.180;2023-04-09T05:16:15;8.20;99.90
13251;DHT22;6692;50.710;7.180;2023-04-09T05:18:15;8.20;99.90
13251;DHT22;6692;50.710;7.180;2023-04-09T05:20:17;8.20;99.90
13251;DHT22;6692;50.710;7.180;2023-04-09T05:22:18;8.30;99.90
13251;DHT22;6692;50.710;7.180;2023-04-09T05:24:19;8.30;99.90
13251;DHT22;6692;50.710;7.180;2023-04-09T05:26:19;8.20;99.90
13251;DHT22;6692;50.710;7.180;2023-04-09T05:28:21;8.30;99.90
13251;DHT22;6692;50.710;7.180;2023-04-09T05:30:21;8.30;99.90
13251;DHT22;6692;50.710;7.180;2023-04-09T05:32:22;8.30;99.90
13251;DHT22;6692;50.710;7.180;2023-04-09T05:34:23;8.40;99.90
13251;DHT22;6692;50.710;7.180;2023-04-09T05:36:23;8.50;99.90
13251;DHT22;6692;50.710;7.180;2023-04-09T05:38:24;8.50;99.90
13251;DHT22;6692;50.710;7.180;2023-04-09T05:40:25;8.60;99.90
13251;DHT22;6692;50.710;7.180;2023-04-09T05:42:27;8.60;99.90
13251;DHT22;6692;50.710;7.180;2023-04-09T05:44:28;8.60;99.90
13251;DHT22;6692;50.710;7.180;2023-04-09T05:46:28;8.70;99.90
13251;DHT22;6692;50.710;7.180;2023-04-09T05:48:30;8.80;99.90
13251;DHT22;6692;50.710;7.180;2023-04-09T05:50:30;8.80;99.90
13251;DHT22;6692;50.710;7.180;2023-04-09T05:52:32;8.90;99.90
13251;DHT22;6692;50.710;7.180;2023-04-09T05:54:32;8.80;99.90
13251;DHT22;6692;50.710;7.180;2023-04-09T05:56:34;8.90;99.90
13251;DHT22;6692;50.710;7.180;2023-04-09T05:58:34;8.90;99.90
13251;DHT22;6692;50.710;7.180;2023-04-09T06:00:35;9.00;99.90
13251;DHT22;6692;50.710;7.180;2023-04-09T06:02:36;9.00;99.90
13251;DHT22;6692;50.710;7.180;2023-04-09T06:04:37;9.10;99.90
13251;DHT22;6692;50.710;7.180;2023-04-09T06:06:38;9.10;99.90
13251;DHT22;6692;50.710;7.180;2023-04-09T06:08:39;9.20;99.90
13251;DHT22;6692;50.710;7.180;2023-04-09T06:10:40;9.10;99.90
13251;DHT22;6692;50.710;7.180;2023-04-09T06:12:40;9.20;99.90
13251;DHT22;6692;50.710;7.180;2023-04-09T06:14:42;9.30;99.90
13251;DHT22;6692;50.710;7.180;2023-04-09T06:16:42;9.40;99.90
13251;DHT22;6692;50.710;7.180;2023-04-09T06:18:43;9.40;99.90
13251;DHT22;6692;50.710;7.180;2023-04-09T06:20:43;9.40;99.90
13251;DHT22;6692;50.710;7.180;2023-04-09T06:22:44;9.50;99.90
13251;DHT22;6692;50.710;7.180;2023-04-09T06:24:45;9.50;99.90
13251;DHT22;6692;50.710;7.180;2023-04-09T06:26:45;9.60;99.90
13251;DHT22;6692;50.710;7.180;2023-04-09T06:28:46;9.60;99.90
13251;DHT22;6692;50.710;7.180;2023-04-09T06:30:47;9.70;99.90
13251;DHT22;6692;50.710;7.180;2023-04-09T06:32:47;9.80;99.90
13251;DHT22;6692;50.710;7.180;2023-04-09T06:34:48;9.80;99.90
13251;DHT22;6692;50.710;7.180;2023-04-09T06:36:49;9.90;99.90
13251;DHT22;6692;50.710;7.180;2023-04-09T06:38:49;9.90;99.90
13251;DHT22;6692;50.710;7.180;2023-04-09T06:40:50;10.00;99.90
13251;DHT22;6692;50.710;7.180;2023-04-09T06:42:51;10.00;99.90
13251;DHT22;6692;50.710;7.180;2023-04-09T06:44:51;10.00;99.90
13251;DHT22;6692;50.710;7.180;2023-04-09T06:46:53;10.10;99.90
13251;DHT22;6692;50.710;7.180;2023-04-09T06:48:54;10.20;99.90
13251;DHT22;6692;50.710;7.180;2023-04-09T06:50:55;10.20;99.90
13251;DHT22;6692;50.710;7.180;2023-04-09T06:52:56;10.20;99.90
13251;DHT22;6692;50.710;7.180;2023-04-09T06:54:57;10.30;99.90
13251;DHT22;6692;50.710;7.180;2023-04-09T06:56:59;10.40;99.90
13251;DHT22;6692;50.710;7.180;2023-04-09T06:58:59;10.40;99.90
13251;DHT22;6692;50.710;7.180;2023-04-09T07:01:00;10.40;99.90
13251;DHT22;6692;50.710;7.180;2023-04-09T07:03:01;10.40;99.90
13251;DHT22;6692;50.710;7.180;2023-04-09T07:05:03;10.40;99.90
13251;DHT22;6692;50.710;7.180;2023-04-09T07:07:03;10.50;99.90
13251;DHT22;6692;50.710;7.180;2023-04-09T07:09:04;10.40;99.90
13251;DHT22;6692;50.710;7.180;2023-04-09T07:11:04;10.30;99.90
13251;DHT22;6692;50.710;7.180;2023-04-09T07:13:06;10.20;99.90
13251;DHT22;6692;50.710;7.180;2023-04-09T07:15:07;10.10;99.90
13251;DHT22;6692;50.710;7.180;2023-04-09T07:17:09;10.00;99.90
13251;DHT22;6692;50.710;7.180;2023-04-09T07:19:09;10.00;99.90
13251;DHT22;6692;50.710;7.180;2023-04-09T07:21:11;9.90;99.90
13251;DHT22;6692;50.710;7.180;2023-04-09T07:23:11;9.90;99.90
13251;DHT22;6692;50.710;7.180;2023-04-09T07:25:13;9.90;99.90
13251;DHT22;6692;50.710;7.180;2023-04-09T07:27:13;9.80;99.90
13251;DHT22;6692;50.710;7.180;2023-04-09T07:29:14;9.80;99.90
13251;DHT22;6692;50.710;7.180;2023-04-09T07:31:14;9.80;99.90
13251;DHT22;6692;50.710;7.180;2023-04-09T07:33:15;9.80;99.90
13251;DHT22;6692;50.710;7.180;2023-04-09T07:35:16;9.80;99.90
13251;DHT22;6692;50.710;7.180;2023-04-09T07:37:16;9.80;99.90
13251;DHT22;6692;50.710;7.180;2023-04-09T07:39:18;9.80;99.90
13251;DHT22;6692;50.710;7.180;2023-04-09T07:41:18;9.80;99.90
13251;DHT22;6692;50.710;7.180;2023-04-09T07:43:20;9.90;99.90
13251;DHT22;6692;50.710;7.180;2023-04-09T07:45:20;9.80;99.90
13251;DHT22;6692;50.710;7.180;2023-04-09T07:47:21;9.90;99.90
13251;DHT22;6692;50.710;7.180;2023-04-09T07:49:22;9.90;99.90
13251;DHT22;6692;50.710;7.180;2023-04-09T07:51:23;9.90;99.90
13251;DHT22;6692;50.710;7.180;2023-04-09T07:53:24;9.90;99.90
13251;DHT22;6692;50.710;7.180;2023-04-09T07:55:24;10.00;99.90
13251;DHT22;6692;50.710;7.180;2023-04-09T07:57:25;10.10;99.90
13251;DHT22;6692;50.710;7.180;2023-04-09T07:59:25;10.10;99.90
13251;DHT22;6692;50.710;7.180;2023-04-09T08:01:26;10.10;99.90
13251;DHT22;6692;50.710;7.180;2023-04-09T08:03:27;10.20;99.90
13251;DHT22;6692;50.710;7.180;2023-04-09T08:05:28;10.20;99.90
13251;DHT22;6692;50.710;7.180;2023-04-09T08:07:29;10.20;99.90
13251;DHT22;6692;50.710;7.180;2023-04-09T08:09:30;10.30;99.90
13251;DHT22;6692;50.710;7.180;2023-04-09T08:11:32;10.40;99.90
13251;DHT22;6692;50.710;7.180;2023-04-09T08:13:32;10.30;99.90
13251;DHT22;6692;50.710;7.180;2023-04-09T08:15:33;10.40;99.90
13251;DHT22;6692;50.710;7.180;2023-04-09T08:17:34;10.50;99.90
13251;DHT22;6692;50.710;7.180;2023-04-09T08:19:35;10.70;99.90
13251;DHT22;6692;50.710;7.180;2023-04-09T08:21:37;10.60;99.90
13251;DHT22;6692;50.710;7.180;2023-04-09T08:23:37;10.80;99.90
13251;DHT22;6692;50.710;7.180;2023-04-09T08:25:38;10.80;99.90
13251;DHT22;6692;50.710;7.180;2023-04-09T08:27:39;10.80;99.90
13251;DHT22;6692;50.710;7.180;2023-04-09T08:29:40;10.70;99.90
13251;DHT22;6692;50.710;7.180;2023-04-09T08:31:41;10.70;99.90
13251;DHT22;6692;50.710;7.180;2023-04-09T08:33:41;10.70;99.90
13251;DHT22;6692;50.710;7.180;2023-04-09T08:35:42;10.80;99.90
13251;DHT22;6692;50.710;7.180;2023-04-09T08:37:42;10.80;99.90
13251;DHT22;6692;50.710;7.180;2023-04-09T08:39:43;10.90;99.90
13251;DHT22;6692;50.710;7.180;2023-04-09T08:41:44;10.90;99.90
13251;DHT22;6692;50.710;7.180;2023-04-09T08:43:46;10.90;99.90
13251;DHT22;6692;50.710;7.180;2023-04-09T08:45:46;11.10;99.90
13251;DHT22;6692;50.710;7.180;2023-04-09T08:47:48;11.10;99.90
13251;DHT22;6692;50.710;7.180;2023-04-09T08:49:49;11.10;99.90
13251;DHT22;6692;50.710;7.180;2023-04-09T08:51:50;11.10;99.90
13251;DHT22;6692;50.710;7.180;2023-04-09T08:53:54;11.20;99.90
13251;DHT22;6692;50.710;7.180;2023-04-09T08:55:53;11.20;99.90
13251;DHT22;6692;50.710;7.180;2023-04-09T08:57:53;11.20;99.90
13251;DHT22;6692;50.710;7.180;2023-04-09T08:59:54;11.30;99.90
13251;DHT22;6692;50.710;7.180;2023-04-09T09:02:06;11.40;99.90
13251;DHT22;6692;50.710;7.180;2023-04-09T09:04:07;11.50;99.90
13251;DHT22;6692;50.710;7.180;2023-04-09T09:06:12;11.50;99.90
13251;DHT22;6692;50.710;7.180;2023-04-09T09:08:09;11.60;99.90
13251;DHT22;6692;50.710;7.180;2023-04-09T09:10:10;11.60;99.90
13251;DHT22;6692;50.710;7.180;2023-04-09T09:12:11;11.70;99.90
13251;DHT22;6692;50.710;7.180;2023-04-09T09:14:14;11.80;99.90
13251;DHT22;6692;50.710;7.180;2023-04-09T09:16:14;11.80;99.90
13251;DHT22;6692;50.710;7.180;2023-04-09T09:18:15;11.80;99.90
13251;DHT22;6692;50.710;7.180;2023-04-09T09:20:17;11.80;99.90
13251;DHT22;6692;50.710;7.180;2023-04-09T09:22:18;11.80;99.90
13251;DHT22;6692;50.710;7.180;2023-04-09T09:24:18;11.80;99.90
13251;DHT22;6692;50.710;7.180;2023-04-09T09:26:20;12.00;99.90
13251;DHT22;6692;50.710;7.180;2023-04-09T09:28:20;12.30;99.90
13251;DHT22;6692;50.710;7.180;2023-04-09T09:30:24;12.30;99.90
13251;DHT22;6692;50.710;7.180;2023-04-09T09:32:24;12.30;99.90
13251;DHT22;6692;50.710;7.180;2023-04-09T09:34:24;12.30;99.90
13251;DHT22;6692;50.710;7.180;2023-04-09T09:36:31;12.20;99.90
13251;DHT22;6692;50.710;7.180;2023-04-09T09:38:32;12.20;99.90
13251;DHT22;6692;50.710;7.180;2023-04-09T09:40:32;12.10;99.90
13251;DHT22;6692;50.710;7.180;2023-04-09T09:42:33;12.10;99.90
13251;DHT22;6692;50.710;7.180;2023-04-09T09:44:34;12.20;99.90
13251;DHT22;6692;50.710;7.180;2023-04-09T09:46:38;12.50;99.90
13251;DHT22;6692;50.710;7.180;2023-04-09T09:48:38;12.70;99.90
13251;DHT22;6692;50.710;7.180;2023-04-09T09:50:38;12.70;99.90
13251;DHT22;6692;50.710;7.180;2023-04-09T09:52:39;12.90;99.90
13251;DHT22;6692;50.710;7.180;2023-04-09T09:54:41;12.90;99.90
13251;DHT22;6692;50.710;7.180;2023-04-09T09:56:41;12.90;99.90
13251;DHT22;6692;50.710;7.180;2023-04-09T09:58:48;12.80;99.90
13251;DHT22;6692;50.710;7.180;2023-04-09T10:00:48;12.80;99.90
13251;DHT22;6692;50.710;7.180;2023-04-09T10:02:52;12.80;99.90
13251;DHT22;6692;50.710;7.180;2023-04-09T10:04:50;12.80;99.90
13251;DHT22;6692;50.710;7.180;2023-04-09T10:06:50;12.80;99.90
13251;DHT22;6692;50.710;7.180;2023-04-09T10:08:53;12.90;99.90
13251;DHT22;6692;50.710;7.180;2023-04-09T10:10:52;12.90;99.90
13251;DHT22;6692;50.710;7.180;2023-04-09T10:12:53;13.10;99.90
13251;DHT22;6692;50.710;7.180;2023-04-09T10:14:54;13.20;99.90
13251;DHT22;6692;50.710;7.180;2023-04-09T10:16:55;13.20;99.90
13251;DHT22;6692;50.710;7.180;2023-04-09T10:18:57;13.40;99.90
13251;DHT22;6692;50.710;7.180;2023-04-09T10:21:00;13.60;99.90
13251;DHT22;6692;50.710;7.180;2023-04-09T10:22:59;13.70;99.90
13251;DHT22;6692;50.710;7.180;2023-04-09T10:25:00;13.90;99.90
13251;DHT22;6692;50.710;7.180;2023-04-09T10:27:08;13.90;99.90
13251;DHT22;6692;50.710;7.180;2023-04-09T10:29:09;13.90;99.90
13251;DHT22;6692;50.710;7.180;2023-04-09T10:31:09;14.00;99.90
13251;DHT22;6692;50.710;7.180;2023-04-09T10:33:11;14.20;99.90
13251;DHT22;6692;50.710;7.180;2023-04-09T10:35:11;14.20;99.90
13251;DHT22;6692;50.710;7.180;2023-04-09T10:37:13;14.20;99.90
13251;DHT22;6692;50.710;7.180;2023-04-09T10:39:13;14.30;99.90
13251;DHT22;6692;50.710;7.180;2023-04-09T10:41:15;14.30;99.90
13251;DHT22;6692;50.710;7.180;2023-04-09T10:43:17;14.40;99.90
13251;DHT22;6692;50.710;7.180;2023-04-09T10:45:18;14.50;99.90
13251;DHT22;6692;50.710;7.180;2023-04-09T10:47:29;14.50;99.90
13251;DHT22;6692;50.710;7.180;2023-04-09T10:49:20;14.60;99.90
13251;DHT22;6692;50.710;7.180;2023-04-09T10:51:20;14.70;99.90
13251;DHT22;6692;50.710;7.180;2023-04-09T10:53:22;14.70;99.90
13251;DHT22;6692;50.710;7.180;2023-04-09T10:55:29;14.80;99.90
13251;DHT22;6692;50.710;7.180;2023-04-09T10:57:29;14.80;99.90
13251;DHT22;6692;50.710;7.180;2023-04-09T10:59:29;14.90;99.90
13251;DHT22;6692;50.710;7.180;2023-04-09T11:01:31;15.00;99.90
13251;DHT22;6692;50.710;7.180;2023-04-09T11:03:31;15.00;99.90
13251;DHT22;6692;50.710;7.180;2023-04-09T11:05:33;15.00;99.90
13251;DHT22;6692;50.710;7.180;2023-04-09T11:07:34;15.10;99.90
13251;DHT22;6692;50.710;7.180;2023-04-09T11:09:34;15.20;99.90
13251;DHT22;6692;50.710;7.180;2023-04-09T11:11:34;15.20;99.90
13251;DHT22;6692;50.710;7.180;2023-04-09T11:13:35;15.30;99.90
13251;DHT22;6692;50.710;7.180;2023-04-09T11:15:35;15.40;99.90
13251;DHT22;6692;50.710;7.180;2023-04-09T11:17:36;15.50;99.90
13251;DHT22;6692;50.710;7.180;2023-04-09T11:19:37;15.60;99.90
13251;DHT22;6692;50.710;7.180;2023-04-09T11:21:40;15.60;99.90
13251;DHT22;6692;50.710;7.180;2023-04-09T11:23:38;15.50;99.90
13251;DHT22;6692;50.710;7.180;2023-04-09T11:25:38;15.40;99.90
13251;DHT22;6692;50.710;7.180;2023-04-09T11:27:43;15.40;99.90
13251;DHT22;6692;50.710;7.180;2023-04-09T11:29:41;15.60;99.90
13251;DHT22;6692;50.710;7.180;2023-04-09T11:31:43;15.50;99.90
13251;DHT22;6692;50.710;7.180;2023-04-09T11:33:45;15.70;99.90
13251;DHT22;6692;50.710;7.180;2023-04-09T11:35:47;15.70;99.90
13251;DHT22;6692;50.710;7.180;2023-04-09T11:37:48;15.70;99.90
13251;DHT22;6692;50.710;7.180;2023-04-09T11:39:49;15.80;99.90
13251;DHT22;6692;50.710;7.180;2023-04-09T11:41:50;15.80;99.90
13251;DHT22;6692;50.710;7.180;2023-04-09T11:43:51;15.70;99.90
13251;DHT22;6692;50.710;7.180;2023-04-09T11:45:53;15.70;99.90
13251;DHT22;6692;50.710;7.180;2023-04-09T11:47:53;15.60;99.90
13251;DHT22;6692;50.710;7.180;2023-04-09T11:49:54;15.60;99.90
13251;DHT22;6692;50.710;7.180;2023-04-09T11:51:55;15.40;99.90
13251;DHT22;6692;50.710;7.180;2023-04-09T11:54:00;15.40;99.90
13251;DHT22;6692;50.710;7.180;2023-04-09T11:55:57;15.40;99.90
13251;DHT22;6692;50.710;7.180;2023-04-09T11:57:58;15.40;99.90
13251;DHT22;6692;50.710;7.180;2023-04-09T11:59:59;15.50;99.90
13251;DHT22;6692;50.710;7.180;2023-04-09T12:02:00;15.50;99.90
13251;DHT22;6692;50.710;7.180;2023-04-09T12:04:01;15.50;99.90
13251;DHT22;6692;50.710;7.180;2023-04-09T12:06:02;15.50;99.90
13251;DHT22;6692;50.710;7.180;2023-04-09T12:08:03;15.40;99.90
13251;DHT22;6692;50.710;7.180;2023-04-09T12:10:06;15.40;99.90
13251;DHT22;6692;50.710;7.180;2023-04-09T12:12:08;15.50;99.90
13251;DHT22;6692;50.710;7.180;2023-04-09T12:14:12;15.40;99.90
13251;DHT22;6692;50.710;7.180;2023-04-09T12:16:12;15.50;99.90
13251;DHT22;6692;50.710;7.180;2023-04-09T12:18:13;15.40;99.90
13251;DHT22;6692;50.710;7.180;2023-04-09T12:20:13;15.40;99.90
13251;DHT22;6692;50.710;7.180;2023-04-09T12:22:14;15.40;99.90
13251;DHT22;6692;50.710;7.180;2023-04-09T12:24:18;15.40;99.90
13251;DHT22;6692;50.710;7.180;2023-04-09T12:26:17;15.50;99.90
13251;DHT22;6692;50.710;7.180;2023-04-09T12:28:18;15.50;99.90
13251;DHT22;6692;50.710;7.180;2023-04-09T12:30:18;15.50;99.90
13251;DHT22;6692;50.710;7.180;2023-04-09T12:32:20;15.60;99.90
13251;DHT22;6692;50.710;7.180;2023-04-09T12:34:21;15.60;99.90
13251;DHT22;6692;50.710;7.180;2023-04-09T12:36:21;15.70;99.90
13251;DHT22;6692;50.710;7.180;2023-04-09T12:38:22;15.80;99.90
13251;DHT22;6692;50.710;7.180;2023-04-09T12:40:22;15.90;99.90
13251;DHT22;6692;50.710;7.180;2023-04-09T12:42:24;16.00;99.90
13251;DHT22;6692;50.710;7.180;2023-04-09T12:44:25;16.00;99.90
13251;DHT22;6692;50.710;7.180;2023-04-09T12:46:25;16.00;99.90
13251;DHT22;6692;50.710;7.180;2023-04-09T12:48:27;15.90;99.90
13251;DHT22;6692;50.710;7.180;2023-04-09T12:50:28;15.80;99.90
13251;DHT22;6692;50.710;7.180;2023-04-09T12:52:29;15.70;99.90
13251;DHT22;6692;50.710;7.180;2023-04-09T12:54:30;15.70;99.90
13251;DHT22;6692;50.710;7.180;2023-04-09T12:56:31;15.70;99.90
13251;DHT22;6692;50.710;7.180;2023-04-09T12:58:31;15.60;99.90
13251;DHT22;6692;50.710;7.180;2023-04-09T13:00:32;15.70;99.90
13251;DHT22;6692;50.710;7.180;2023-04-09T13:02:33;15.70;99.90
13251;DHT22;6692;50.710;7.180;2023-04-09T13:04:34;15.70;99.90